createdAt,value
2023-05-25T00:00:29.111Z,90.75
2023-05-25T00:02:56.378Z,90.71
2023-05-25T00:05:27.964Z,90.34
2023-05-25T00:07:55.546Z,90.82
2023-05-25T00:10:23.972Z,91.36
2023-05-25T00:12:51.183Z,91.09
2023-05-25T00:15:18.048Z,91.15
2023-05-25T00:17:44.771Z,91.07
2023-05-25T00:20:13.952Z,91.19
2023-05-25T00:22:45.089Z,91.68
2023-05-25T00:25:12.570Z,91.41
2023-05-25T00:27:39.435Z,91.43
2023-05-25T00:30:07.389Z,91.18
2023-05-25T00:32:34.213Z,91.10
2023-05-25T00:35:01.668Z,90.96
2023-05-25T00:37:28.395Z,90.95
2023-05-25T00:39:55.930Z,90.75
2023-05-25T00:42:24.169Z,91.03
2023-05-25T00:44:51.539Z,90.60
2023-05-25T00:47:18.401Z,90.84
2023-05-25T00:49:46.246Z,90.78
2023-05-25T00:52:13.409Z,90.57
2023-05-25T00:55:09.222Z,90.88
2023-05-25T00:57:37.962Z,90.31
2023-05-25T01:00:11.058Z,90.90
2023-05-25T01:02:42.617Z,90.72
2023-05-25T01:05:14.920Z,91.67
2023-05-25T01:07:44.260Z,92.27
2023-05-25T01:10:15.785Z,91.62
2023-05-25T01:12:44.660Z,92.30
2023-05-25T01:15:12.052Z,92.34
2023-05-25T01:17:39.281Z,92.53
2023-05-25T01:20:11.940Z,92.84
2023-05-25T01:23:00.246Z,92.85
2023-05-25T01:25:43.191Z,92.73
2023-05-25T01:28:18.491Z,93.00
2023-05-25T01:30:48.741Z,92.98
2023-05-25T01:33:18.292Z,93.05
2023-05-25T01:35:47.239Z,92.99
2023-05-25T01:38:20.861Z,93.01
2023-05-25T01:40:47.708Z,92.84
2023-05-25T01:43:19.061Z,93.05
2023-05-25T01:45:47.003Z,93.10
2023-05-25T01:48:24.089Z,92.74
2023-05-25T01:50:58.088Z,93.05
2023-05-25T01:53:50.474Z,93.52
2023-05-25T01:56:19.474Z,93.45
2023-05-25T01:58:48.687Z,93.66
2023-05-25T02:01:18.290Z,93.43
2023-05-25T02:03:49.085Z,93.10
2023-05-25T02:06:16.367Z,92.29
2023-05-25T02:08:44.247Z,92.61
2023-05-25T02:11:14.551Z,92.63
2023-05-25T02:13:41.815Z,92.79
2023-05-25T02:16:08.866Z,91.85
2023-05-25T02:18:36.026Z,92.34
2023-05-25T02:21:03.535Z,92.81
2023-05-25T02:23:30.477Z,92.28
2023-05-25T02:25:57.197Z,92.68
2023-05-25T02:28:25.094Z,92.25
2023-05-25T02:30:51.930Z,92.82
2023-05-25T02:33:19.034Z,92.82
2023-05-25T02:35:46.550Z,92.48
2023-05-25T02:38:13.955Z,92.85
2023-05-25T02:40:40.801Z,93.08
2023-05-25T02:43:12.247Z,93.08
2023-05-25T02:45:40.310Z,93.15
2023-05-25T02:48:07.405Z,93.05
2023-05-25T02:50:35.611Z,92.83
2023-05-25T02:53:11.808Z,93.01
2023-05-25T02:55:40.552Z,92.80
2023-05-25T02:58:10.201Z,93.10
2023-05-25T03:00:54.768Z,92.85
2023-05-25T03:03:21.817Z,93.00
2023-05-25T03:05:49.204Z,92.24
2023-05-25T03:08:19.633Z,92.50
2023-05-25T03:10:47.624Z,92.06
2023-05-25T03:13:18.989Z,92.49
2023-05-25T03:15:46.219Z,92.48
2023-05-25T03:18:13.075Z,92.80
2023-05-25T03:20:41.626Z,93.26
2023-05-25T03:23:08.653Z,92.61
2023-05-25T03:25:35.781Z,92.65
2023-05-25T03:28:03.933Z,92.71
2023-05-25T03:30:31.418Z,92.50
2023-05-25T03:32:58.436Z,92.67
2023-05-25T03:35:30.704Z,92.78
2023-05-25T03:37:57.612Z,93.03
2023-05-25T03:40:24.285Z,92.92
2023-05-25T03:42:51.414Z,93.30
2023-05-25T03:45:18.241Z,93.32
2023-05-25T03:47:45.627Z,93.19
2023-05-25T03:50:12.753Z,93.32
2023-05-25T03:52:39.564Z,93.21
2023-05-25T03:55:09.537Z,93.44
2023-05-25T03:57:36.239Z,92.85
2023-05-25T04:00:03.184Z,93.41
2023-05-25T04:02:42.661Z,93.02
2023-05-25T04:05:09.867Z,92.79
2023-05-25T04:07:37.138Z,92.29
2023-05-25T04:10:04.653Z,92.53
2023-05-25T04:12:32.516Z,93.05
2023-05-25T04:14:59.670Z,92.53
2023-05-25T04:17:30.314Z,92.74
2023-05-25T04:19:57.182Z,92.34
2023-05-25T04:22:23.943Z,92.21
2023-05-25T04:24:50.675Z,91.86
2023-05-25T04:27:17.673Z,92.35
2023-05-25T04:29:50.285Z,91.94
2023-05-25T04:32:37.569Z,92.82
2023-05-25T04:35:33.520Z,93.23
2023-05-25T04:38:02.820Z,93.09
2023-05-25T04:40:30.149Z,92.60
2023-05-25T04:42:57.133Z,92.36
2023-05-25T04:45:24.982Z,91.97
2023-05-25T04:47:51.851Z,92.31
2023-05-25T04:50:18.756Z,91.66
2023-05-25T04:52:45.567Z,91.86
2023-05-25T04:55:25.200Z,91.93
2023-05-25T04:57:53.340Z,91.44
2023-05-25T05:00:25.152Z,91.71
2023-05-25T05:02:56.758Z,91.29
2023-05-25T05:05:30.964Z,91.63
2023-05-25T05:08:00.191Z,91.37
2023-05-25T05:10:27.135Z,91.72
2023-05-25T05:12:57.004Z,91.59
2023-05-25T05:15:24.027Z,91.36
2023-05-25T05:17:50.866Z,91.77
2023-05-25T05:20:17.810Z,91.93
2023-05-25T05:22:46.057Z,91.68
2023-05-25T05:25:12.881Z,91.70
2023-05-25T05:27:39.686Z,91.14
2023-05-25T05:30:13.624Z,91.51
2023-05-25T05:32:40.621Z,91.99
2023-05-25T05:35:10.701Z,91.89
2023-05-25T05:37:41.140Z,90.96
2023-05-25T05:40:11.925Z,90.62
2023-05-25T05:42:41.286Z,90.94
2023-05-25T05:45:09.412Z,90.70
2023-05-25T05:47:36.271Z,90.72
2023-05-25T05:50:03.507Z,90.06
2023-05-25T05:52:30.670Z,90.96
2023-05-25T05:54:57.415Z,90.53
2023-05-25T05:57:24.241Z,90.42
2023-05-25T05:59:51.217Z,89.58
2023-05-25T06:02:19.541Z,90.44
2023-05-25T06:04:46.486Z,89.99
2023-05-25T06:07:13.231Z,90.63
2023-05-25T06:09:40.968Z,89.99
2023-05-25T06:12:08.913Z,89.74
2023-05-25T06:14:35.742Z,90.83
2023-05-25T06:17:07.382Z,89.56
2023-05-25T06:19:34.204Z,90.39
2023-05-25T06:22:01.072Z,90.07
2023-05-25T06:24:27.761Z,89.53
2023-05-25T06:26:54.453Z,90.17
2023-05-25T06:29:21.224Z,89.46
2023-05-25T06:31:47.993Z,88.38
2023-05-25T06:34:15.058Z,89.28
2023-05-25T06:36:42.452Z,90.30
2023-05-25T06:39:10.326Z,88.84
2023-05-25T06:41:38.371Z,89.59
2023-05-25T06:44:05.193Z,88.66
2023-05-25T06:46:33.570Z,88.84
2023-05-25T06:49:01.522Z,89.27
2023-05-25T06:51:31.273Z,88.83
2023-05-25T06:53:58.025Z,88.37
2023-05-25T06:56:24.814Z,88.80
2023-05-25T06:58:51.502Z,88.92
2023-05-25T07:01:18.247Z,89.29
2023-05-25T07:03:44.992Z,88.83
2023-05-25T07:06:12.320Z,89.01
2023-05-25T07:08:41.214Z,88.07
2023-05-25T07:11:11.977Z,88.04
2023-05-25T07:13:38.752Z,87.71
2023-05-25T07:16:05.853Z,88.70
2023-05-25T07:18:32.755Z,87.32
2023-05-25T07:20:59.459Z,87.36
2023-05-25T07:23:26.419Z,86.46
2023-05-25T07:25:53.191Z,86.53
2023-05-25T07:28:19.953Z,87.37
2023-05-25T07:30:46.658Z,86.29
2023-05-25T07:33:21.741Z,85.65
2023-05-25T07:35:49.198Z,86.46
2023-05-25T07:38:25.190Z,87.38
2023-05-25T07:40:52.666Z,86.65
2023-05-25T07:43:20.602Z,85.64
2023-05-25T07:45:47.510Z,85.06
2023-05-25T07:48:14.267Z,85.30
2023-05-25T07:50:41.474Z,85.65
2023-05-25T07:53:15.903Z,86.33
2023-05-25T07:55:42.705Z,86.02
2023-05-25T07:58:09.657Z,87.82
2023-05-25T08:00:36.387Z,85.43
2023-05-25T08:03:03.432Z,85.74
2023-05-25T08:05:30.575Z,84.91
2023-05-25T08:07:57.554Z,86.01
2023-05-25T08:10:24.353Z,86.01
2023-05-25T08:12:52.515Z,85.07
2023-05-25T08:15:19.473Z,84.11
2023-05-25T08:17:46.381Z,84.00
2023-05-25T08:20:14.452Z,84.71
2023-05-25T08:22:41.414Z,84.71
2023-05-25T08:25:11.441Z,84.87
2023-05-25T08:27:38.214Z,84.59
2023-05-25T08:30:08.104Z,83.56
2023-05-25T08:32:34.828Z,83.58
2023-05-25T08:35:03.959Z,83.94
2023-05-25T08:37:35.658Z,83.57
2023-05-25T08:40:03.090Z,82.95
2023-05-25T08:42:30.141Z,82.76
2023-05-25T08:44:57.350Z,82.71
2023-05-25T08:47:24.934Z,82.70
2023-05-25T08:49:53.092Z,82.69
2023-05-25T08:52:23.007Z,81.73
2023-05-25T08:55:03.781Z,81.12
2023-05-25T08:57:49.129Z,80.77
2023-05-25T09:00:19.361Z,80.43
2023-05-25T09:02:56.266Z,81.01
2023-05-25T09:05:24.063Z,80.58
2023-05-25T09:07:54.375Z,80.40
2023-05-25T09:10:22.424Z,80.83
2023-05-25T09:12:51.707Z,79.88
2023-05-25T09:15:18.955Z,80.89
2023-05-25T09:17:45.694Z,79.91
2023-05-25T09:20:22.456Z,80.34
2023-05-25T09:22:49.237Z,81.75
2023-05-25T09:25:26.048Z,80.49
2023-05-25T09:27:53.491Z,78.79
2023-05-25T09:30:20.207Z,80.12
2023-05-25T09:32:46.964Z,79.25
2023-05-25T09:35:15.471Z,80.33
2023-05-25T09:37:44.105Z,78.25
2023-05-25T09:40:16.761Z,79.00
2023-05-25T09:42:44.336Z,78.64
2023-05-25T09:45:18.635Z,78.58
2023-05-25T09:47:45.470Z,78.28
2023-05-25T09:50:12.298Z,78.43
2023-05-25T09:52:39.104Z,78.50
2023-05-25T09:55:15.888Z,77.92
2023-05-25T09:57:44.148Z,77.68
2023-05-25T10:00:12.188Z,78.92
2023-05-25T10:02:39.142Z,77.83
2023-05-25T10:05:07.519Z,77.73
2023-05-25T10:07:35.115Z,77.70
2023-05-25T10:10:06.771Z,78.27
2023-05-25T10:12:34.165Z,77.57
2023-05-25T10:15:04.256Z,75.90
2023-05-25T10:17:35.669Z,76.48
2023-05-25T10:20:06.982Z,75.50
2023-05-25T10:22:54.268Z,75.56
2023-05-25T10:25:48.829Z,75.62
2023-05-25T10:28:24.627Z,74.97
2023-05-25T10:30:53.541Z,74.36
2023-05-25T10:33:21.339Z,74.33
2023-05-25T10:36:03.135Z,73.76
2023-05-25T10:38:39.340Z,72.96
2023-05-25T10:41:11.110Z,74.94
2023-05-25T10:43:41.419Z,73.61
2023-05-25T10:46:09.119Z,73.60
2023-05-25T10:48:37.534Z,74.24
2023-05-25T10:51:09.327Z,72.62
2023-05-25T10:53:37.776Z,72.34
2023-05-25T10:56:06.478Z,70.66
2023-05-25T10:58:34.216Z,70.97
2023-05-25T11:01:02.496Z,72.00
2023-05-25T11:03:44.402Z,69.68
2023-05-25T11:06:12.370Z,72.31
2023-05-25T11:08:55.019Z,71.25
2023-05-25T11:11:40.652Z,70.12
2023-05-25T11:14:20.497Z,69.51
2023-05-25T11:17:14.046Z,70.82
2023-05-25T11:19:52.501Z,69.34
2023-05-25T11:22:23.037Z,70.11
2023-05-25T11:24:51.826Z,68.31
2023-05-25T11:27:29.689Z,69.13
2023-05-25T11:29:58.490Z,68.40
2023-05-25T11:32:26.751Z,68.35
2023-05-25T11:34:55.214Z,68.25
2023-05-25T11:37:28.962Z,69.56
2023-05-25T11:39:56.499Z,70.62
2023-05-25T11:42:24.814Z,70.13
2023-05-25T11:44:52.079Z,70.13
2023-05-25T11:47:23.307Z,70.93
2023-05-25T11:49:50.633Z,68.54
2023-05-25T11:52:19.023Z,69.33
2023-05-25T11:54:46.598Z,66.79
2023-05-25T11:57:22.643Z,68.90
2023-05-25T11:59:54.141Z,67.23
2023-05-25T12:02:22.250Z,67.45
2023-05-25T12:05:01.891Z,67.60
2023-05-25T12:07:30.045Z,67.45
2023-05-25T12:10:07.102Z,66.93
2023-05-25T12:12:44.404Z,67.36
2023-05-25T12:15:21.134Z,69.25
2023-05-25T12:17:48.386Z,66.99
2023-05-25T12:20:18.995Z,68.14
2023-05-25T12:22:47.378Z,67.18
2023-05-25T12:25:18.704Z,68.17
2023-05-25T12:27:45.625Z,68.81
2023-05-25T12:30:12.488Z,69.87
2023-05-25T12:32:53.853Z,68.90
2023-05-25T12:35:22.469Z,68.08
2023-05-25T12:37:49.341Z,70.59
2023-05-25T12:40:21.026Z,67.17
2023-05-25T12:42:56.868Z,71.00
2023-05-25T12:45:24.122Z,68.52
2023-05-25T12:47:51.170Z,68.38
2023-05-25T12:50:19.438Z,67.38
2023-05-25T12:52:49.047Z,67.58
2023-05-25T12:55:28.180Z,68.12
2023-05-25T12:58:03.441Z,67.78
2023-05-25T13:00:40.068Z,68.08
2023-05-25T13:03:08.037Z,67.28
2023-05-25T13:05:37.089Z,68.64
2023-05-25T13:08:05.618Z,65.79
2023-05-25T13:10:33.372Z,66.14
2023-05-25T13:13:00.951Z,66.64
2023-05-25T13:15:28.321Z,67.40
2023-05-25T13:17:56.523Z,66.73
2023-05-25T13:20:28.028Z,66.08
2023-05-25T13:22:58.332Z,66.16
2023-05-25T13:25:27.574Z,64.47
2023-05-25T13:27:55.170Z,65.40
2023-05-25T13:30:22.193Z,64.65
2023-05-25T13:32:51.426Z,65.58
2023-05-25T13:35:23.289Z,64.34
2023-05-25T13:37:51.272Z,62.70
2023-05-25T13:40:18.396Z,65.28
2023-05-25T13:42:45.209Z,62.30
2023-05-25T13:45:12.090Z,60.32
2023-05-25T13:47:38.942Z,61.48
2023-05-25T13:50:08.345Z,60.45
2023-05-25T13:52:37.152Z,59.85
2023-05-25T13:55:04.676Z,59.68
2023-05-25T13:57:31.480Z,60.76
2023-05-25T13:59:58.108Z,57.31
2023-05-25T14:02:24.986Z,56.74
2023-05-25T14:04:51.968Z,56.07
2023-05-25T14:07:18.682Z,56.87
2023-05-25T14:09:45.664Z,56.49
2023-05-25T14:12:14.243Z,55.95
2023-05-25T14:14:41.124Z,57.26
2023-05-25T14:17:10.625Z,55.85
2023-05-25T14:19:37.826Z,55.55
2023-05-25T14:22:13.360Z,55.36
2023-05-25T14:24:41.508Z,56.25
2023-05-25T14:27:08.688Z,55.66
2023-05-25T14:29:35.747Z,54.92
2023-05-25T14:32:11.396Z,56.08
2023-05-25T14:34:38.115Z,55.67
2023-05-25T14:37:04.964Z,55.88
2023-05-25T14:39:31.833Z,56.00
2023-05-25T14:41:58.681Z,53.82
2023-05-25T14:44:25.442Z,53.65
2023-05-25T14:46:52.234Z,55.20
2023-05-25T14:49:19.734Z,54.24
2023-05-25T14:51:46.462Z,55.85
2023-05-25T14:54:15.953Z,55.06
2023-05-25T14:56:51.457Z,54.06
2023-05-25T14:59:18.215Z,53.20
2023-05-25T15:01:50.545Z,53.63
2023-05-25T15:04:17.354Z,54.23
2023-05-25T15:06:44.123Z,55.00
2023-05-25T15:09:11.004Z,55.34
2023-05-25T15:11:37.647Z,53.92
2023-05-25T15:14:04.861Z,55.69
2023-05-25T15:16:31.773Z,54.29
2023-05-25T15:18:58.661Z,53.50
2023-05-25T15:21:26.725Z,53.63
2023-05-25T15:23:53.491Z,55.69
2023-05-25T15:26:20.166Z,53.49
2023-05-25T15:28:47.078Z,54.89
2023-05-25T15:31:13.754Z,54.71
2023-05-25T15:33:53.888Z,53.61
2023-05-25T15:36:23.570Z,55.03
2023-05-25T15:38:50.359Z,53.74
2023-05-25T15:41:17.660Z,57.63
2023-05-25T15:43:54.536Z,53.45
2023-05-25T15:46:21.661Z,54.49
2023-05-25T15:48:48.389Z,53.49
2023-05-25T15:51:15.282Z,54.58
2023-05-25T15:53:41.996Z,53.10
2023-05-25T15:56:08.710Z,52.71
2023-05-25T15:58:35.677Z,53.66
2023-05-25T16:01:02.833Z,52.99
2023-05-25T16:03:29.966Z,53.17
2023-05-25T16:05:57.263Z,52.73
2023-05-25T16:08:23.977Z,54.15
2023-05-25T16:10:53.543Z,52.46
2023-05-25T16:13:20.428Z,50.95
2023-05-25T16:15:47.279Z,52.58
2023-05-25T16:18:20.473Z,52.51
2023-05-25T16:20:49.143Z,52.68
2023-05-25T16:23:18.611Z,52.57
2023-05-25T16:25:45.625Z,55.17
2023-05-25T16:28:12.509Z,54.43
2023-05-25T16:30:39.348Z,54.50
2023-05-25T16:33:06.550Z,53.19
2023-05-25T16:35:33.476Z,53.46
2023-05-25T16:38:00.190Z,54.56
2023-05-25T16:40:39.565Z,53.29
2023-05-25T16:43:06.435Z,51.77
2023-05-25T16:45:33.085Z,51.84
2023-05-25T16:48:00.136Z,51.89
2023-05-25T16:50:27.092Z,52.56
2023-05-25T16:52:53.854Z,51.62
2023-05-25T16:55:21.345Z,51.39
2023-05-25T16:57:48.109Z,51.99
2023-05-25T17:00:17.645Z,51.50
2023-05-25T17:02:45.138Z,51.40
2023-05-25T17:05:12.127Z,52.21
2023-05-25T17:07:40.239Z,52.47
2023-05-25T17:10:08.151Z,53.55
2023-05-25T17:12:34.854Z,53.95
2023-05-25T17:15:01.635Z,53.12
2023-05-25T17:17:28.782Z,52.76
2023-05-25T17:19:55.652Z,52.25
2023-05-25T17:22:22.488Z,53.89
2023-05-25T17:24:49.188Z,54.34
2023-05-25T17:27:19.118Z,54.74
2023-05-25T17:29:46.187Z,55.68
2023-05-25T17:32:12.954Z,53.79
2023-05-25T17:34:39.831Z,53.24
2023-05-25T17:37:06.721Z,53.85
2023-05-25T17:39:33.548Z,54.41
2023-05-25T17:42:01.463Z,55.08
2023-05-25T17:44:28.197Z,54.71
2023-05-25T17:46:55.249Z,55.34
2023-05-25T17:49:22.001Z,55.84
2023-05-25T17:51:48.791Z,55.15
2023-05-25T17:54:21.555Z,56.21
2023-05-25T17:56:48.342Z,56.36
2023-05-25T17:59:15.059Z,57.42
2023-05-25T18:01:42.063Z,58.07
2023-05-25T18:04:09.104Z,58.71
2023-05-25T18:06:37.747Z,58.63
2023-05-25T18:09:08.135Z,59.58
2023-05-25T18:11:36.609Z,61.46
2023-05-25T18:14:05.183Z,62.31
2023-05-25T18:16:32.594Z,63.09
2023-05-25T18:18:59.361Z,63.51
2023-05-25T18:21:26.525Z,64.05
2023-05-25T18:23:53.184Z,64.52
2023-05-25T18:26:19.888Z,65.13
2023-05-25T18:28:46.572Z,65.08
2023-05-25T18:31:13.418Z,65.29
2023-05-25T18:33:41.196Z,65.58
2023-05-25T18:36:08.202Z,66.31
2023-05-25T18:38:38.069Z,66.01
2023-05-25T18:41:10.482Z,65.74
2023-05-25T18:43:37.552Z,65.79
2023-05-25T18:46:07.532Z,65.96
2023-05-25T18:48:34.941Z,66.82
2023-05-25T18:51:03.054Z,67.89
2023-05-25T18:53:29.917Z,67.98
2023-05-25T18:55:56.682Z,68.22
2023-05-25T18:58:23.471Z,68.50
2023-05-25T19:00:50.189Z,68.32
2023-05-25T19:03:17.070Z,68.18
2023-05-25T19:05:43.925Z,68.39
2023-05-25T19:08:10.822Z,68.73
2023-05-25T19:10:37.532Z,69.49
2023-05-25T19:13:04.923Z,70.08
2023-05-25T19:15:31.561Z,70.59
2023-05-25T19:17:58.369Z,70.63
2023-05-25T19:20:25.127Z,70.95
2023-05-25T19:22:51.825Z,70.94
2023-05-25T19:25:18.598Z,71.63
2023-05-25T19:27:45.464Z,70.76
2023-05-25T19:30:12.403Z,70.63
2023-05-25T19:32:42.051Z,72.14
2023-05-25T19:35:11.827Z,72.29
2023-05-25T19:37:38.636Z,72.38
2023-05-25T19:40:08.883Z,72.72
2023-05-25T19:42:35.598Z,72.52
2023-05-25T19:45:05.793Z,73.11
2023-05-25T19:47:32.659Z,73.05
2023-05-25T19:49:59.543Z,73.63
2023-05-25T19:52:26.553Z,73.60
2023-05-25T19:54:53.314Z,73.74
2023-05-25T19:57:20.985Z,74.15
2023-05-25T19:59:47.735Z,74.44
2023-05-25T20:02:14.558Z,74.13
2023-05-25T20:04:41.526Z,74.44
2023-05-25T20:07:08.415Z,74.73
2023-05-25T20:09:35.747Z,74.10
2023-05-25T20:12:03.230Z,75.50
2023-05-25T20:14:33.772Z,76.04
2023-05-25T20:17:00.638Z,75.31
2023-05-25T20:19:27.503Z,76.13
2023-05-25T20:21:54.746Z,76.20
2023-05-25T20:24:22.184Z,76.46
2023-05-25T20:26:50.967Z,76.78
2023-05-25T20:29:17.645Z,76.70
2023-05-25T20:31:44.585Z,76.40
2023-05-25T20:34:11.320Z,76.31
2023-05-25T20:36:38.475Z,76.90
2023-05-25T20:39:05.805Z,76.34
2023-05-25T20:41:32.769Z,77.59
2023-05-25T20:43:59.537Z,77.69
2023-05-25T20:46:26.834Z,78.65
2023-05-25T20:48:53.671Z,77.90
2023-05-25T20:51:21.707Z,78.29
2023-05-25T20:53:48.495Z,78.58
2023-05-25T20:56:15.479Z,78.62
2023-05-25T20:58:42.227Z,78.46
2023-05-25T21:01:16.688Z,78.03
2023-05-25T21:03:43.555Z,77.89
2023-05-25T21:06:12.717Z,78.00
2023-05-25T21:08:39.361Z,78.48
2023-05-25T21:11:06.997Z,78.10
2023-05-25T21:13:33.695Z,78.37
2023-05-25T21:16:00.477Z,78.59
2023-05-25T21:18:29.381Z,78.83
2023-05-25T21:20:56.039Z,78.98
2023-05-25T21:23:22.708Z,79.67
2023-05-25T21:25:49.458Z,79.58
2023-05-25T21:28:16.248Z,80.25
2023-05-25T21:30:43.081Z,79.56
2023-05-25T21:33:09.839Z,79.29
2023-05-25T21:35:36.657Z,79.60
2023-05-25T21:38:03.358Z,78.91
2023-05-25T21:40:30.064Z,80.17
2023-05-25T21:43:00.036Z,80.26
2023-05-25T21:45:26.810Z,81.04
2023-05-25T21:47:53.608Z,81.03
2023-05-25T21:50:20.539Z,80.81
2023-05-25T21:52:47.249Z,79.46
2023-05-25T21:55:13.963Z,79.42
2023-05-25T21:57:40.801Z,79.99
2023-05-25T22:00:08.268Z,80.16
2023-05-25T22:02:44.381Z,80.81
2023-05-25T22:05:11.254Z,81.04
2023-05-25T22:07:37.968Z,81.09
2023-05-25T22:10:05.101Z,80.71
2023-05-25T22:12:31.878Z,80.45
2023-05-25T22:14:58.589Z,80.97
2023-05-25T22:17:25.348Z,81.18
2023-05-25T22:20:03.249Z,80.91
2023-05-25T22:22:42.377Z,81.36
2023-05-25T22:25:09.437Z,81.79
2023-05-25T22:27:36.115Z,81.47
2023-05-25T22:30:03.525Z,81.95
2023-05-25T22:32:30.359Z,82.37
2023-05-25T22:34:57.062Z,82.05
2023-05-25T22:37:23.763Z,81.57
2023-05-25T22:39:50.478Z,82.12
2023-05-25T22:42:17.274Z,82.52
2023-05-25T22:44:46.401Z,82.33
2023-05-25T22:47:13.300Z,82.69
2023-05-25T22:49:43.128Z,83.14
2023-05-25T22:52:11.202Z,82.92
2023-05-25T22:54:37.957Z,82.30
2023-05-25T22:57:09.011Z,82.40
2023-05-25T22:59:36.143Z,82.04
2023-05-25T23:02:02.873Z,84.30
2023-05-25T23:04:29.590Z,83.85
2023-05-25T23:06:56.299Z,83.66
2023-05-25T23:09:23.083Z,83.68
2023-05-25T23:11:49.792Z,83.72
2023-05-25T23:14:16.686Z,84.20
2023-05-25T23:16:44.469Z,84.12
2023-05-25T23:19:11.482Z,84.08
2023-05-25T23:21:38.172Z,83.71
2023-05-25T23:24:05.260Z,83.54
2023-05-25T23:26:31.962Z,83.79
2023-05-25T23:28:58.747Z,83.67
2023-05-25T23:31:25.695Z,84.00
2023-05-25T23:33:52.422Z,84.05
2023-05-25T23:36:19.126Z,84.58
2023-05-25T23:38:46.399Z,83.56
2023-05-25T23:41:13.355Z,84.20
2023-05-25T23:43:40.082Z,84.47
2023-05-25T23:46:07.331Z,85.06
2023-05-25T23:48:34.104Z,85.19
2023-05-25T23:51:01.084Z,85.26
2023-05-25T23:53:27.840Z,84.94
2023-05-25T23:55:54.652Z,84.69
2023-05-25T23:58:21.333Z,84.45
